createdAt,value
2018-06-05T00:00:24.557Z,83.10
2018-06-05T00:02:53.092Z,83.30
2018-06-05T00:07:49.814Z,84.50
2018-06-05T00:10:18.367Z,84.90
2018-06-05T00:12:46.917Z,85.80
2018-06-05T00:15:15.450Z,85.40
2018-06-05T00:17:43.983Z,85.20
2018-06-05T00:20:12.481Z,84.80
2018-06-05T00:22:41.113Z,85.90
2018-06-05T00:25:09.572Z,86.50
2018-06-05T00:27:38.100Z,86.40
2018-06-05T00:30:06.582Z,86.10
2018-06-05T00:32:35.093Z,86.60
2018-06-05T00:35:03.629Z,87.10
2018-06-05T00:37:32.187Z,87.20
2018-06-05T00:42:28.877Z,87.50
2018-06-05T00:44:57.378Z,87.20
2018-06-05T00:47:26.585Z,86.90
2018-06-05T00:49:55.085Z,86.90
2018-06-05T00:52:23.645Z,86.80
2018-06-05T00:54:52.173Z,88.00
2018-06-05T00:57:20.771Z,87.70
2018-06-05T00:59:49.296Z,87.20
2018-06-05T01:02:17.838Z,87.40
2018-06-05T01:04:46.377Z,87.20
2018-06-05T01:07:15.042Z,87.70
2018-06-05T01:09:43.562Z,87.40
2018-06-05T01:12:12.086Z,87.80
2018-06-05T01:14:40.634Z,88.40
2018-06-05T01:17:09.141Z,88.00
2018-06-05T01:19:37.677Z,87.00
2018-06-05T01:22:06.286Z,87.40
2018-06-05T01:24:34.802Z,87.40
2018-06-05T01:27:03.338Z,86.70
2018-06-05T01:29:31.843Z,86.90
2018-06-05T01:32:00.397Z,86.60
2018-06-05T01:34:28.955Z,86.90
2018-06-05T01:36:57.428Z,87.40
2018-06-05T01:39:26.000Z,87.40
2018-06-05T01:41:54.506Z,87.40
2018-06-05T01:44:23.840Z,87.40
2018-06-05T01:46:52.421Z,87.80
2018-06-05T01:49:20.996Z,88.80
2018-06-05T01:51:49.594Z,89.00
2018-06-05T01:54:19.081Z,88.80
2018-06-05T01:56:47.693Z,88.60
2018-06-05T01:59:16.379Z,89.10
2018-06-05T02:01:44.932Z,89.40
2018-06-05T02:04:14.197Z,90.10
2018-06-05T02:06:43.010Z,89.90
2018-06-05T02:09:11.560Z,89.70
2018-06-05T02:11:40.580Z,88.90
2018-06-05T02:14:09.113Z,89.30
2018-06-05T02:16:37.662Z,88.90
2018-06-05T02:19:06.823Z,89.20
2018-06-05T02:21:35.357Z,89.60
2018-06-05T02:24:03.963Z,89.20
2018-06-05T02:26:32.489Z,89.40
2018-06-05T02:29:00.994Z,89.70
2018-06-05T02:31:29.509Z,90.00
2018-06-05T02:33:58.821Z,90.10
2018-06-05T02:36:28.100Z,89.80
2018-06-05T02:38:57.039Z,89.40
2018-06-05T02:41:26.219Z,89.20
2018-06-05T02:43:55.413Z,89.00
2018-06-05T02:46:24.686Z,88.80
2018-06-05T02:51:22.691Z,88.70
2018-06-05T02:53:51.940Z,87.70
2018-06-05T02:56:21.251Z,88.40
2018-06-05T02:58:50.227Z,89.20
2018-06-05T03:01:19.161Z,89.30
2018-06-05T03:03:48.341Z,89.20
2018-06-05T03:06:18.040Z,88.30
2018-06-05T03:08:47.404Z,87.40
2018-06-05T03:11:17.413Z,87.90
2018-06-05T03:13:46.457Z,87.90
2018-06-05T03:16:14.992Z,87.50
2018-06-05T03:18:43.506Z,87.00
2018-06-05T03:21:12.053Z,86.60
2018-06-05T03:23:40.619Z,86.30
2018-06-05T03:26:09.193Z,85.90
2018-06-05T03:28:37.734Z,85.60
2018-06-05T03:33:34.474Z,85.80
2018-06-05T03:36:03.008Z,85.70
2018-06-05T03:38:32.261Z,85.00
2018-06-05T03:41:00.807Z,85.20
2018-06-05T03:43:29.341Z,85.30
2018-06-05T03:45:57.927Z,85.50
2018-06-05T03:48:26.530Z,84.70
2018-06-05T03:50:55.095Z,85.00
2018-06-05T03:53:23.670Z,85.30
2018-06-05T03:55:52.232Z,85.00
2018-06-05T03:58:20.798Z,84.90
2018-06-05T04:00:49.653Z,84.90
2018-06-05T04:03:18.188Z,85.00
2018-06-05T04:05:46.751Z,85.40
2018-06-05T04:08:15.327Z,85.80
2018-06-05T04:10:43.870Z,85.60
2018-06-05T04:13:12.567Z,85.60
2018-06-05T04:15:41.124Z,85.60
2018-06-05T04:18:09.708Z,85.80
2018-06-05T04:20:38.254Z,86.40
2018-06-05T04:23:06.809Z,86.90
2018-06-05T04:25:35.287Z,87.50
2018-06-05T04:28:03.861Z,87.20
2018-06-05T04:30:32.352Z,86.60
2018-06-05T04:33:00.893Z,87.20
2018-06-05T04:35:29.439Z,87.70
2018-06-05T04:37:57.988Z,87.20
2018-06-05T04:40:26.948Z,87.10
2018-06-05T04:42:55.500Z,86.40
2018-06-05T04:45:24.000Z,86.50
2018-06-05T04:47:52.576Z,85.90
2018-06-05T04:50:21.152Z,86.70
2018-06-05T04:52:49.774Z,87.20
2018-06-05T04:55:18.317Z,87.00
2018-06-05T04:57:46.912Z,87.00
2018-06-05T05:00:15.420Z,87.20
2018-06-05T05:02:44.959Z,87.70
2018-06-05T05:05:13.468Z,87.20
2018-06-05T05:07:41.976Z,87.20
2018-06-05T05:10:10.541Z,88.10
2018-06-05T05:12:39.057Z,87.50
2018-06-05T05:15:07.655Z,87.70
2018-06-05T05:17:36.355Z,87.60
2018-06-05T05:20:05.094Z,87.30
2018-06-05T05:25:01.800Z,87.40
2018-06-05T05:27:30.301Z,87.70
2018-06-05T05:29:58.891Z,86.40
2018-06-05T05:32:27.456Z,86.20
2018-06-05T05:34:55.961Z,85.50
2018-06-05T05:37:24.536Z,85.60
2018-06-05T05:39:53.067Z,85.50
2018-06-05T05:42:21.689Z,86.40
2018-06-05T05:44:50.193Z,85.90
2018-06-05T05:47:19.325Z,86.60
2018-06-05T05:49:47.819Z,86.30
2018-06-05T05:52:16.333Z,85.20
2018-06-05T05:54:45.623Z,85.30
2018-06-05T05:57:14.085Z,84.30
2018-06-05T05:59:42.641Z,84.50
2018-06-05T06:02:11.183Z,84.60
2018-06-05T06:04:39.866Z,84.40
2018-06-05T06:07:09.482Z,83.20
2018-06-05T06:09:37.982Z,83.30
2018-06-05T06:14:34.895Z,82.50
2018-06-05T06:17:03.537Z,82.30
2018-06-05T06:19:32.116Z,82.30
2018-06-05T06:22:00.856Z,81.90
2018-06-05T06:24:29.549Z,82.00
2018-06-05T06:26:58.134Z,81.90
2018-06-05T06:29:26.744Z,81.70
2018-06-05T06:31:56.244Z,83.10
2018-06-05T06:34:24.910Z,81.80
2018-06-05T06:36:53.804Z,82.20
2018-06-05T06:39:22.426Z,82.10
2018-06-05T06:41:51.070Z,81.90
2018-06-05T06:44:19.561Z,82.20
2018-06-05T06:46:48.131Z,83.30
2018-06-05T06:49:16.688Z,81.60
2018-06-05T06:51:45.232Z,82.40
2018-06-05T06:54:13.947Z,82.50
2018-06-05T06:56:42.458Z,82.50
2018-06-05T06:59:11.024Z,82.00
2018-06-05T07:01:39.624Z,82.00
2018-06-05T07:04:08.461Z,82.20
2018-06-05T07:06:37.119Z,82.30
2018-06-05T07:09:08.128Z,82.20
2018-06-05T07:11:36.934Z,81.80
2018-06-05T07:14:05.563Z,81.90
2018-06-05T07:19:27.258Z,81.90
2018-06-05T07:21:55.866Z,81.50
2018-06-05T07:24:24.465Z,81.00
2018-06-05T07:26:53.005Z,81.90
2018-06-05T07:29:21.582Z,81.70
2018-06-05T07:31:50.162Z,82.60
2018-06-05T07:34:18.690Z,82.30
2018-06-05T07:36:47.314Z,81.90
2018-06-05T07:39:15.895Z,82.20
2018-06-05T07:41:45.457Z,82.60
2018-06-05T07:44:13.987Z,82.30
2018-06-05T07:49:10.631Z,80.60
2018-06-05T07:51:39.238Z,80.70
2018-06-05T07:54:07.772Z,80.00
2018-06-05T07:56:36.344Z,80.60
2018-06-05T07:59:04.788Z,80.50
2018-06-05T08:01:33.572Z,80.60
2018-06-05T08:04:02.157Z,81.60
2018-06-05T08:06:30.669Z,80.70
2018-06-05T08:08:59.187Z,80.80
2018-06-05T08:11:27.739Z,81.00
2018-06-05T08:13:56.355Z,80.70
2018-06-05T08:16:24.884Z,80.30
2018-06-05T08:18:53.396Z,80.10
2018-06-05T08:21:21.944Z,80.30
2018-06-05T08:23:50.554Z,80.60
2018-06-05T08:26:27.004Z,80.10
2018-06-05T08:28:55.683Z,81.70
2018-06-05T08:31:25.027Z,80.30
2018-06-05T08:33:53.644Z,80.50
2018-06-05T08:36:22.195Z,81.40
2018-06-05T08:38:50.766Z,81.50
2018-06-05T08:41:19.889Z,81.60
2018-06-05T08:43:48.469Z,80.80
2018-06-05T08:46:17.005Z,81.10
2018-06-05T08:48:45.928Z,81.50
2018-06-05T08:51:14.445Z,81.30
2018-06-05T08:53:42.926Z,81.40
2018-06-05T08:56:11.456Z,81.40
2018-06-05T08:58:40.030Z,81.50
2018-06-05T09:01:08.533Z,81.40
2018-06-05T09:03:37.039Z,80.50
2018-06-05T09:06:05.896Z,80.60
2018-06-05T09:08:34.405Z,80.40
2018-06-05T09:11:02.952Z,80.20
2018-06-05T09:13:31.465Z,79.90
2018-06-05T09:15:59.998Z,79.30
2018-06-05T09:18:28.507Z,80.10
2018-06-05T09:20:57.023Z,79.10
2018-06-05T09:23:25.554Z,79.20
2018-06-05T09:25:54.459Z,80.20
2018-06-05T09:28:23.189Z,80.90
2018-06-05T09:30:52.393Z,81.80
2018-06-05T09:33:34.083Z,82.20
2018-06-05T09:36:02.609Z,83.40
2018-06-05T09:38:32.187Z,83.10
2018-06-05T09:41:00.778Z,82.80
2018-06-05T09:43:29.326Z,83.40
2018-06-05T09:45:58.145Z,83.20
2018-06-05T09:48:26.955Z,82.30
2018-06-05T09:50:55.488Z,82.40
2018-06-05T09:53:24.123Z,81.70
2018-06-05T09:55:52.735Z,82.10
2018-06-05T09:58:21.401Z,82.90
2018-06-05T10:00:52.517Z,82.20
2018-06-05T10:03:21.893Z,81.90
2018-06-05T10:05:50.510Z,81.70
2018-06-05T10:08:19.122Z,82.50
2018-06-05T10:10:47.940Z,82.70
2018-06-05T10:13:17.331Z,82.20
2018-06-05T10:15:46.203Z,81.80
2018-06-05T10:18:14.759Z,81.40
2018-06-05T10:23:11.901Z,82.00
2018-06-05T10:25:40.451Z,81.90
2018-06-05T10:28:09.356Z,81.60
2018-06-05T10:30:37.901Z,81.50
2018-06-05T10:33:06.720Z,80.90
2018-06-05T10:35:35.246Z,80.60
2018-06-05T10:38:03.787Z,80.60
2018-06-05T10:40:32.277Z,79.60
2018-06-05T10:43:00.743Z,79.20
2018-06-05T10:47:58.018Z,77.90
2018-06-05T10:50:27.043Z,78.90
2018-06-05T10:52:55.658Z,79.60
2018-06-05T10:55:24.208Z,78.90
2018-06-05T10:57:52.813Z,79.70
2018-06-05T11:00:21.520Z,79.20
2018-06-05T11:02:50.073Z,78.70
2018-06-05T11:05:18.762Z,78.70
2018-06-05T11:07:47.426Z,79.00
2018-06-05T11:10:16.263Z,79.00
2018-06-05T11:12:45.207Z,79.40
2018-06-05T11:15:13.705Z,79.00
2018-06-05T11:17:42.690Z,79.40
2018-06-05T11:20:14.499Z,79.00
2018-06-05T11:22:43.120Z,79.30
2018-06-05T11:25:11.638Z,79.10
2018-06-05T11:27:40.210Z,79.80
2018-06-05T11:30:08.953Z,79.60
2018-06-05T11:32:37.509Z,78.60
2018-06-05T11:37:34.706Z,77.10
2018-06-05T11:40:03.248Z,76.60
2018-06-05T11:42:31.850Z,77.20
2018-06-05T11:45:00.749Z,77.60
2018-06-05T11:49:57.734Z,78.00
2018-06-05T11:52:26.344Z,77.90
2018-06-05T11:54:55.079Z,76.90
2018-06-05T11:57:23.738Z,77.10
2018-06-05T11:59:52.613Z,77.60
2018-06-05T12:02:21.476Z,76.70
2018-06-05T12:04:50.077Z,76.40
2018-06-05T12:07:19.105Z,75.20
2018-06-05T12:09:47.624Z,75.70
2018-06-05T12:12:16.186Z,75.90
2018-06-05T12:14:44.757Z,76.20
2018-06-05T12:17:13.724Z,75.70
2018-06-05T12:19:42.240Z,76.00
2018-06-05T12:22:10.792Z,76.30
2018-06-05T12:24:39.416Z,76.20
2018-06-05T12:27:11.045Z,76.20
2018-06-05T12:29:39.528Z,75.40
2018-06-05T12:32:08.096Z,75.40
2018-06-05T12:34:37.036Z,75.50
2018-06-05T12:37:05.728Z,75.80
2018-06-05T12:39:34.631Z,75.20
2018-06-05T12:42:03.168Z,75.70
2018-06-05T12:44:31.750Z,76.10
2018-06-05T12:47:00.641Z,75.40
2018-06-05T12:49:41.570Z,74.70
2018-06-05T12:52:10.155Z,75.10
2018-06-05T12:54:38.708Z,75.00
2018-06-05T12:57:07.511Z,75.40
2018-06-05T12:59:36.061Z,74.50
2018-06-05T13:02:04.684Z,75.00
2018-06-05T13:04:33.312Z,74.80
2018-06-05T13:07:01.800Z,75.80
2018-06-05T13:09:30.550Z,75.20
2018-06-05T13:12:06.619Z,75.10
2018-06-05T13:14:35.194Z,74.90
2018-06-05T13:17:03.755Z,74.50
2018-06-05T13:19:32.292Z,74.70
2018-06-05T13:22:00.848Z,73.80
2018-06-05T13:27:03.584Z,74.60
2018-06-05T13:29:32.554Z,74.60
2018-06-05T13:32:01.175Z,75.30
2018-06-05T13:34:31.142Z,73.20
2018-06-05T13:37:00.017Z,69.10
2018-06-05T13:39:28.569Z,70.30
2018-06-05T13:41:57.121Z,69.70
2018-06-05T13:46:54.240Z,69.40
2018-06-05T13:49:22.777Z,68.90
2018-06-05T13:57:16.914Z,69.70
2018-06-05T13:59:45.464Z,66.90
2018-06-05T14:02:13.987Z,68.00
2018-06-05T14:04:42.458Z,67.20
2018-06-05T14:07:11.027Z,67.00
2018-06-05T14:09:39.565Z,68.50
2018-06-05T14:12:08.072Z,66.70
2018-06-05T14:14:36.572Z,67.00
2018-06-05T14:17:05.168Z,66.50
2018-06-05T14:19:40.336Z,66.10
2018-06-05T14:22:08.953Z,67.20
2018-06-05T14:24:38.063Z,67.30
2018-06-05T14:27:06.320Z,66.70
2018-06-05T14:29:34.903Z,64.30
2018-06-05T14:32:03.462Z,65.30
2018-06-05T14:34:32.026Z,64.40
2018-06-05T14:37:00.800Z,66.30
2018-06-05T14:39:29.672Z,66.20
2018-06-05T14:42:05.666Z,65.30
2018-06-05T14:44:34.222Z,64.70
2018-06-05T14:47:03.026Z,65.40
2018-06-05T14:49:31.884Z,64.40
2018-06-05T14:52:00.570Z,64.50
2018-06-05T14:54:29.157Z,64.20
2018-06-05T14:56:58.212Z,64.00
2018-06-05T14:59:26.860Z,64.80
2018-06-05T15:01:55.360Z,65.50
2018-06-05T15:04:30.720Z,64.30
2018-06-05T15:06:59.361Z,65.30
2018-06-05T15:09:29.035Z,65.80
2018-06-05T15:11:57.581Z,66.20
2018-06-05T15:14:26.397Z,65.50
2018-06-05T15:16:54.937Z,65.40
2018-06-05T15:19:23.452Z,65.20
2018-06-05T15:21:51.940Z,65.80
2018-06-05T15:24:20.430Z,66.50
2018-06-05T15:26:49.087Z,66.20
2018-06-05T15:29:18.077Z,65.50
2018-06-05T15:34:15.255Z,66.40
2018-06-05T15:36:43.821Z,64.60
2018-06-05T15:39:12.674Z,64.50
2018-06-05T15:41:41.304Z,64.50
2018-06-05T15:44:09.828Z,64.20
2018-06-05T15:46:38.389Z,64.70
2018-06-05T15:49:07.003Z,64.80
2018-06-05T15:51:35.505Z,64.50
2018-06-05T15:54:04.070Z,64.00
2018-06-05T15:56:32.596Z,65.10
2018-06-05T15:59:01.188Z,64.90
2018-06-05T16:01:29.996Z,65.30
2018-06-05T16:03:58.570Z,64.70
2018-06-05T16:06:27.113Z,65.90
2018-06-05T16:08:55.649Z,65.70
2018-06-05T16:11:24.164Z,65.30
2018-06-05T16:13:53.116Z,65.30
2018-06-05T16:16:22.515Z,64.40
2018-06-05T16:18:51.072Z,64.70
2018-06-05T16:21:19.778Z,64.50
2018-06-05T16:23:48.388Z,64.90
2018-06-05T16:26:17.440Z,64.40
2018-06-05T16:28:45.923Z,63.90
2018-06-05T16:31:14.769Z,63.50
2018-06-05T16:33:43.305Z,63.50
2018-06-05T16:36:12.184Z,63.40
2018-06-05T16:38:40.813Z,63.40
2018-06-05T16:41:09.332Z,64.20
2018-06-05T16:43:37.884Z,64.20
2018-06-05T16:46:06.456Z,63.60
2018-06-05T16:48:34.976Z,63.40
2018-06-05T16:51:03.484Z,63.50
2018-06-05T16:53:32.079Z,63.30
2018-06-05T16:56:00.699Z,63.30
2018-06-05T16:58:29.651Z,63.10
2018-06-05T17:00:58.215Z,62.60
2018-06-05T17:03:27.142Z,62.60
2018-06-05T17:05:55.743Z,62.60
2018-06-05T17:08:24.562Z,62.60
2018-06-05T17:10:53.436Z,62.10
2018-06-05T17:13:21.961Z,62.70
2018-06-05T17:15:50.645Z,63.10
2018-06-05T17:18:19.159Z,63.70
2018-06-05T17:20:48.005Z,63.90
2018-06-05T17:23:16.544Z,63.70
2018-06-05T17:25:45.276Z,64.20
2018-06-05T17:28:13.780Z,64.40
2018-06-05T17:30:42.383Z,64.90
2018-06-05T17:33:11.281Z,65.30
2018-06-05T17:35:39.849Z,65.50
2018-06-05T17:38:08.401Z,65.70
2018-06-05T17:40:38.143Z,66.20
2018-06-05T17:43:06.724Z,66.90
2018-06-05T17:45:35.341Z,66.00
2018-06-05T17:48:04.431Z,65.80
2018-06-05T17:50:33.256Z,65.80
2018-06-05T17:53:01.776Z,66.40
2018-06-05T17:55:30.496Z,66.40
2018-06-05T17:57:59.427Z,66.60
2018-06-05T18:00:28.217Z,66.90
2018-06-05T18:02:56.759Z,67.10
2018-06-05T18:05:25.333Z,67.60
2018-06-05T18:07:53.862Z,66.90
2018-06-05T18:10:23.043Z,67.40
2018-06-05T18:12:51.806Z,67.60
2018-06-05T18:15:20.402Z,68.20
2018-06-05T18:20:17.603Z,68.30
2018-06-05T18:22:46.173Z,68.60
2018-06-05T18:25:15.593Z,68.50
2018-06-05T18:27:44.145Z,69.10
2018-06-05T18:30:12.752Z,69.10
2018-06-05T18:37:37.802Z,69.20
2018-06-05T18:40:07.670Z,70.00
2018-06-05T18:42:36.263Z,69.90
2018-06-05T18:45:05.431Z,70.10
2018-06-05T18:47:33.941Z,69.50
2018-06-05T18:50:02.481Z,70.00
2018-06-05T18:52:31.015Z,70.30
2018-06-05T18:54:59.570Z,70.30
2018-06-05T18:57:28.498Z,70.60
2018-06-05T18:59:57.077Z,71.10
2018-06-05T19:02:25.962Z,71.30
2018-06-05T19:04:55.228Z,71.00
2018-06-05T19:07:23.926Z,71.50
2018-06-05T19:09:52.631Z,71.30
2018-06-05T19:12:21.887Z,71.00
2018-06-05T19:14:50.442Z,71.40
2018-06-05T19:17:19.023Z,72.30
2018-06-05T19:19:47.594Z,72.50
2018-06-05T19:22:16.204Z,73.20
2018-06-05T19:24:45.072Z,72.70
2018-06-05T19:27:14.779Z,73.20
2018-06-05T19:29:43.539Z,73.30
2018-06-05T19:32:13.713Z,73.50
2018-06-05T19:34:42.282Z,74.00
2018-06-05T19:37:11.549Z,74.10
2018-06-05T19:42:08.480Z,74.90
2018-06-05T19:44:36.927Z,75.50
2018-06-05T19:47:05.868Z,75.20
2018-06-05T19:49:34.745Z,75.40
2018-06-05T19:52:03.568Z,75.40
2018-06-05T19:57:00.414Z,75.90
2018-06-05T19:59:28.969Z,76.10
2018-06-05T20:01:57.584Z,76.40
2018-06-05T20:04:26.433Z,76.20
2018-06-05T20:06:54.965Z,76.60
2018-06-05T20:09:23.544Z,77.10
2018-06-05T20:11:52.094Z,77.00
2018-06-05T20:14:20.609Z,77.70
2018-06-05T20:16:49.302Z,78.10
2018-06-05T20:19:17.784Z,78.20
2018-06-05T20:21:46.314Z,78.80
2018-06-05T20:24:14.947Z,78.80
2018-06-05T20:26:43.428Z,79.10
2018-06-05T20:29:12.018Z,78.60
2018-06-05T20:31:40.527Z,79.00
2018-06-05T20:34:09.083Z,79.30
2018-06-05T20:36:37.599Z,79.80
2018-06-05T20:39:08.617Z,80.00
2018-06-05T20:41:37.333Z,80.20
2018-06-05T20:44:06.185Z,80.30
2018-06-05T20:46:34.725Z,80.40
2018-06-05T20:49:03.402Z,80.50
2018-06-05T20:51:31.928Z,80.60
2018-06-05T20:54:00.522Z,81.10
2018-06-05T20:56:29.372Z,81.40
2018-06-05T20:58:57.952Z,80.80
2018-06-05T21:01:26.444Z,81.10
2018-06-05T21:03:54.961Z,81.50
2018-06-05T21:06:23.587Z,81.50
2018-06-05T21:08:52.157Z,81.80
2018-06-05T21:11:20.639Z,81.80
2018-06-05T21:13:49.254Z,81.80
2018-06-05T21:16:17.880Z,82.00
2018-06-05T21:18:46.670Z,81.90
2018-06-05T21:21:15.214Z,82.30
2018-06-05T21:23:43.737Z,82.40
2018-06-05T21:26:12.345Z,82.60
2018-06-05T21:28:41.140Z,82.80
2018-06-05T21:31:09.577Z,82.80
2018-06-05T21:33:38.197Z,82.90
2018-06-05T21:36:06.700Z,83.10
2018-06-05T21:38:35.271Z,83.30
2018-06-05T21:41:04.088Z,83.20
2018-06-05T21:43:32.652Z,83.40
2018-06-05T21:46:01.171Z,83.20
2018-06-05T21:48:29.957Z,83.30
2018-06-05T21:50:59.149Z,83.90
2018-06-05T21:53:27.934Z,84.20
2018-06-05T21:55:56.429Z,84.50
2018-06-05T21:58:25.020Z,84.30
2018-06-05T22:00:53.523Z,84.10
2018-06-05T22:03:22.039Z,84.50
2018-06-05T22:05:50.611Z,84.50
2018-06-05T22:13:15.694Z,84.30
2018-06-05T22:15:44.376Z,84.20
2018-06-05T22:18:13.011Z,84.00
2018-06-05T22:20:41.768Z,84.70
2018-06-05T22:23:10.544Z,84.00
2018-06-05T22:25:39.133Z,85.10
2018-06-05T22:28:07.672Z,84.40
2018-06-05T22:30:36.191Z,84.10
2018-06-05T22:33:04.686Z,83.70
2018-06-05T22:35:33.195Z,83.60
2018-06-05T22:38:02.633Z,83.80
2018-06-05T22:40:31.111Z,83.80
2018-06-05T22:42:59.668Z,83.60
2018-06-05T22:45:28.243Z,83.80
2018-06-05T22:47:56.935Z,84.00
2018-06-05T22:50:25.464Z,84.30
2018-06-05T22:52:54.052Z,84.50
2018-06-05T22:55:22.611Z,84.20
2018-06-05T22:57:51.152Z,84.20
2018-06-05T23:00:24.756Z,84.70
2018-06-05T23:02:53.275Z,85.10
2018-06-05T23:05:21.791Z,84.90
2018-06-05T23:07:50.393Z,84.40
2018-06-05T23:10:18.978Z,84.10
2018-06-05T23:12:47.500Z,84.10
2018-06-05T23:17:44.258Z,84.40
2018-06-05T23:20:12.795Z,84.00
2018-06-05T23:22:41.263Z,84.00
2018-06-05T23:25:09.786Z,85.30
2018-06-05T23:27:38.312Z,84.80
2018-06-05T23:30:06.798Z,85.00
2018-06-05T23:32:35.281Z,85.50
2018-06-05T23:35:04.029Z,85.80
2018-06-05T23:37:32.544Z,85.60
2018-06-05T23:40:01.026Z,86.30
2018-06-05T23:42:29.590Z,85.80
2018-06-05T23:44:58.051Z,86.70
2018-06-05T23:47:26.573Z,86.10
2018-06-05T23:49:55.052Z,86.50
2018-06-05T23:52:23.597Z,87.50
2018-06-05T23:54:52.065Z,86.60
2018-06-05T23:57:20.578Z,86.60
2018-06-05T23:59:49.056Z,86.70
